Time;durP1;ratioP1;P1;durP2;ratioP2;P2;SDS_P1;SDS_P2;PMS_P1;PMS_P2;Temp;Humidity;BMP_temperature;BMP_pressure;BME280_temperature;BME280_humidity;BME280_pressure;Samples;Min_cycle;Max_cycle;Signal;HPM_P1;HPM_P2
2021/10/10 00:00:47;;;;;;;;;;;;;;;11.53;71.40;101031.63;5032979;28;19923;-63
2021/10/10 00:03:30;;;;;;;;;;;;;;;11.52;71.39;101025.56;5031947;28;19939;-63
2021/10/10 00:06:14;;;;;;;;;;;;;;;11.50;71.41;101031.56;5033309;28;19947;-64
2021/10/10 00:08:58;;;;;;;;;;;;;;;11.49;71.24;101035.84;5036783;28;20013;-63
2021/10/10 00:11:42;;;;;;;;;;;;;;;11.47;71.21;101034.91;5036717;28;19973;-64
2021/10/10 00:14:26;;;;;;;;;;;;;;;11.46;71.51;101030.56;5036849;28;19924;-63
2021/10/10 00:17:10;;;;;;;;;;;;;;;11.46;71.19;101024.50;5036482;28;19924;-63
2021/10/10 00:19:54;;;;;;;;;;;;;;;11.44;71.13;101024.47;5037094;28;19924;-63
2021/10/10 00:22:38;;;;;;;;;;;;;;;11.43;71.37;101025.31;5037233;28;19924;-63
2021/10/10 00:25:22;;;;;;;;;;;;;;;11.39;71.03;101028.66;5036161;28;19940;-64
2021/10/10 00:28:06;;;;;;;;;;;;;;;11.40;71.31;101030.41;5036577;28;20426;-63
2021/10/10 00:30:50;;;;;;;;;;;;;;;11.38;71.28;101032.94;5037333;28;19971;-62
2021/10/10 00:33:34;;;;;;;;;;;;;;;11.36;70.81;101032.03;5036258;28;19967;-63
2021/10/10 00:36:18;;;;;;;;;;;;;;;11.35;71.18;101029.38;5035454;28;19924;-63
2021/10/10 00:39:02;;;;;;;;;;;;;;;11.32;71.11;101032.78;5036326;28;19987;-62
2021/10/10 00:41:45;;;;;;;;;;;;;;;11.30;71.21;101037.03;5036807;28;20391;-63
2021/10/10 00:44:30;;;;;;;;;;;;;;;11.30;71.28;101028.38;5035516;28;19924;-63
2021/10/10 00:47:15;;;;;;;;;;;;;;;11.28;71.19;101030.94;5035245;28;19967;-63
2021/10/10 00:49:59;;;;;;;;;;;;;;;11.27;70.82;101029.16;5035999;28;19952;-63
2021/10/10 00:52:43;;;;;;;;;;;;;;;11.25;70.67;101025.66;5036364;28;19979;-63
2021/10/10 00:55:28;;;;;;;;;;;;;;;11.24;70.71;101032.56;5036208;28;19940;-64
2021/10/10 00:58:12;;;;;;;;;;;;;;;11.24;70.77;101035.16;5036171;28;19924;-63
2021/10/10 01:00:56;;;;;;;;;;;;;;;11.23;70.61;101032.50;5036468;28;20352;-63
2021/10/10 01:03:39;;;;;;;;;;;;;;;11.22;70.75;101034.22;5036624;28;19959;-63
2021/10/10 01:06:24;;;;;;;;;;;;;;;11.19;70.96;101039.31;5035365;28;19923;-63
2021/10/10 01:09:08;;;;;;;;;;;;;;;11.18;70.59;101042.75;5049430;28;19974;-63
2021/10/10 01:11:52;;;;;;;;;;;;;;;11.18;70.97;101044.47;5035149;28;19967;-63
2021/10/10 01:14:36;;;;;;;;;;;;;;;11.16;70.50;101039.22;5035989;28;19924;-63
2021/10/10 01:17:22;;;;;;;;;;;;;;;11.14;71.03;101038.28;5035870;28;19924;-63
2021/10/10 01:20:07;;;;;;;;;;;;;;;11.12;70.53;101040.00;5035367;28;20260;-63
2021/10/10 01:22:50;;;;;;;;;;;;;;;11.11;70.68;101039.09;5034817;28;19924;-63
2021/10/10 01:25:34;;;;;;;;;;;;;;;11.11;70.83;101039.09;5035257;28;19952;-64
2021/10/10 01:28:18;;;;;;;;;;;;;;;11.09;70.70;101029.53;5035474;28;20328;-63
2021/10/10 01:31:02;;;;;;;;;;;;;;;11.06;70.81;101032.88;5049043;28;19963;-63
2021/10/10 01:33:46;;;;;;;;;;;;;;;11.06;70.51;101039.81;5035416;28;19963;-63
2021/10/10 01:36:30;;;;;;;;;;;;;;;11.05;70.51;101027.66;5034771;28;19987;-63
2021/10/10 01:39:14;;;;;;;;;;;;;;;11.04;70.37;101025.91;5035610;28;19954;-63
2021/10/10 01:41:58;;;;;;;;;;;;;;;11.02;70.22;101022.38;5034654;28;19924;-63
2021/10/10 01:44:42;;;;;;;;;;;;;;;11.01;70.54;101025.81;5034400;28;20008;-64
2021/10/10 01:47:26;;;;;;;;;;;;;;;11.00;70.57;101024.03;5035096;28;20042;-63
2021/10/10 01:50:10;;;;;;;;;;;;;;;10.98;70.53;101020.56;5033910;28;19928;-63
2021/10/10 01:52:54;;;;;;;;;;;;;;;10.98;70.14;101017.94;5034408;28;20407;-62
2021/10/10 01:55:38;;;;;;;;;;;;;;;10.98;70.57;101013.63;5035470;28;20434;-62
2021/10/10 01:58:22;;;;;;;;;;;;;;;10.96;70.52;101008.41;5035458;28;20410;-63
2021/10/10 02:01:06;;;;;;;;;;;;;;;10.95;70.59;101006.66;5034814;28;19924;-62
2021/10/10 02:03:50;;;;;;;;;;;;;;;10.97;70.76;101004.09;5034785;28;19924;-63
2021/10/10 02:06:34;;;;;;;;;;;;;;;10.97;70.66;101004.09;5033898;28;19924;-63
2021/10/10 02:09:17;;;;;;;;;;;;;;;10.96;70.34;101003.22;5033966;28;20446;-64
2021/10/10 02:12:01;;;;;;;;;;;;;;;10.95;70.42;101000.56;5033413;28;19924;-63
2021/10/10 02:14:45;;;;;;;;;;;;;;;10.95;70.27;100997.97;5034276;28;19928;-62
2021/10/10 02:17:29;;;;;;;;;;;;;;;10.92;70.14;100996.19;5033528;28;20323;-63
2021/10/10 02:20:13;;;;;;;;;;;;;;;10.92;70.23;101001.38;5034337;28;20004;-63
2021/10/10 02:22:57;;;;;;;;;;;;;;;10.93;70.52;101003.13;5034416;28;20352;-63
2021/10/10 02:25:41;;;;;;;;;;;;;;;10.94;70.39;100994.50;5034479;28;19923;-63
2021/10/10 02:28:25;;;;;;;;;;;;;;;10.93;70.40;100992.75;5033443;28;20307;-63
2021/10/10 02:31:09;;;;;;;;;;;;;;;10.94;70.53;100991.03;5034318;28;19924;-63
2021/10/10 02:33:53;;;;;;;;;;;;;;;10.94;70.20;100991.91;5034650;28;19924;-62
2021/10/10 02:36:37;;;;;;;;;;;;;;;10.94;70.62;100997.09;5034244;28;19923;-63
2021/10/10 02:39:21;;;;;;;;;;;;;;;10.93;70.67;100992.75;5034353;28;19924;-63
2021/10/10 02:42:05;;;;;;;;;;;;;;;10.92;70.53;100985.81;5034686;28;19927;-63
2021/10/10 02:44:49;;;;;;;;;;;;;;;10.90;70.43;100987.47;5033078;28;19940;-63
2021/10/10 02:47:33;;;;;;;;;;;;;;;10.89;69.95;100992.63;5034176;28;19975;-63
2021/10/10 02:50:17;;;;;;;;;;;;;;;10.86;70.17;100983.00;5034082;28;19926;-63
2021/10/10 02:53:01;;;;;;;;;;;;;;;10.85;70.07;100988.16;5032900;28;19924;-63
2021/10/10 02:55:45;;;;;;;;;;;;;;;10.82;70.19;100988.97;5033635;28;19943;-63
2021/10/10 02:58:29;;;;;;;;;;;;;;;10.84;70.27;100989.00;5034105;28;19924;-63
2021/10/10 03:01:13;;;;;;;;;;;;;;;10.80;70.30;100990.63;5032983;28;19967;-63
2021/10/10 03:03:57;;;;;;;;;;;;;;;10.80;70.05;100990.63;5033527;28;19959;-63
2021/10/10 03:06:41;;;;;;;;;;;;;;;10.79;70.23;100984.53;5033915;28;20283;-63
2021/10/10 03:09:25;;;;;;;;;;;;;;;10.80;69.97;100985.44;5033840;28;19927;-63
2021/10/10 03:12:09;;;;;;;;;;;;;;;10.78;70.25;100975.00;5033700;28;19924;-63
2021/10/10 03:14:53;;;;;;;;;;;;;;;10.80;70.38;100977.66;5033926;28;19943;-63
2021/10/10 03:17:37;;;;;;;;;;;;;;;10.80;70.17;100975.94;5033816;28;19924;-63
2021/10/10 03:22:08;;;;;;;23.77;15.40;;;;;;;10.80;70.45;100968.16;5111646;27;20261;-64
2021/10/10 03:24:52;;;;;;;20.95;14.32;;;;;;;10.79;70.12;100968.13;5111007;28;20482;-63
2021/10/10 03:27:36;;;;;;;26.85;16.50;;;;;;;10.77;70.21;100968.06;5111130;28;20042;-63
2021/10/10 03:30:20;;;;;;;28.88;15.38;;;;;;;10.75;70.21;100961.06;5111414;28;20514;-62
2021/10/10 03:33:04;;;;;;;23.33;15.90;;;;;;;10.72;70.36;100971.34;5111002;28;20560;-63
2021/10/10 03:35:48;;;;;;;24.67;15.52;;;;;;;10.72;70.49;100969.66;5110051;28;20513;-63
2021/10/10 03:38:32;;;;;;;21.80;15.90;;;;;;;10.72;70.44;100971.34;5110876;28;20116;-63
2021/10/10 03:41:16;;;;;;;23.65;15.32;;;;;;;10.70;70.10;100971.31;5109706;28;20067;-63
2021/10/10 03:44:00;;;;;;;28.45;15.25;;;;;;;10.66;70.38;100965.16;5110922;28;20050;-63
2021/10/10 03:46:44;;;;;;;21.58;14.27;;;;;;;10.63;69.94;100969.34;5110467;28;20072;-63
2021/10/10 03:49:31;;;;;;;18.90;13.55;;;;;;;10.62;70.12;100972.78;5111263;28;20047;-63
2021/10/10 03:52:15;;;;;;;21.15;15.32;;;;;;;10.57;70.29;100972.66;5110188;28;20077;-63
2021/10/10 03:57:46;;;;;;;22.67;14.60;;;;;;;10.56;70.08;100967.44;5110915;28;20540;-63
2021/10/10 04:00:31;;;;;;;;;;;;;;;10.54;69.82;100966.50;5110014;28;20077;-62
2021/10/10 04:03:17;;;;;;;29.25;17.00;;;;;;;10.56;70.19;100964.84;5109426;28;20295;-62
2021/10/10 04:06:02;;;;;;;21.85;14.90;;;;;;;10.57;70.31;100964.00;5110463;28;20058;-62
2021/10/10 04:08:47;;;;;;;24.85;15.75;;;;;;;10.58;70.19;100958.84;5110057;28;20043;-63
2021/10/10 04:11:31;;;;;;;22.67;15.48;;;;;;;10.58;70.17;100964.03;5109268;28;20080;-63
2021/10/10 04:14:15;;;;;;;25.13;15.65;;;;;;;10.61;70.30;100965.84;5109969;28;20518;-63
2021/10/10 04:16:58;;;;;;;23.52;15.50;;;;;;;10.60;70.36;100966.66;5109877;28;20043;-63
2021/10/10 04:19:42;;;;;;;30.30;16.30;;;;;;;10.61;70.28;100974.50;5110330;28;20085;-63
2021/10/10 04:22:26;;;;;;;20.15;16.13;;;;;;;10.61;70.54;100971.91;5110097;28;20132;-64
2021/10/10 04:25:11;;;;;;;23.25;15.15;;;;;;;10.60;70.49;100972.75;5110040;28;20130;-62
2021/10/10 04:27:55;;;;;;;19.75;14.63;;;;;;;10.60;70.55;100977.03;5110433;28;20046;-63
2021/10/10 04:30:39;;;;;;;;;;;;;;;10.59;69.98;100976.16;5110037;28;20054;-63
2021/10/10 04:33:23;;;;;;;23.23;15.95;;;;;;;10.57;70.41;100970.06;5097322;28;19918;-63
2021/10/10 04:36:07;;;;;;;21.23;16.50;;;;;;;10.57;70.59;100976.97;5096735;28;20047;-63
2021/10/10 04:38:51;;;;;;;27.02;16.10;;;;;;;10.56;70.22;100973.47;5095944;28;20174;-63
2021/10/10 04:41:35;;;;;;;22.70;15.57;;;;;;;10.53;70.15;100970.78;5095196;28;20518;-63
2021/10/10 04:44:19;;;;;;;25.65;16.77;;;;;;;10.51;70.53;100972.44;5096284;28;20055;-63
2021/10/10 04:47:04;;;;;;;24.98;16.40;;;;;;;10.49;70.01;100971.53;5095040;28;20047;-63
2021/10/10 04:49:48;;;;;;;20.70;15.20;;;;;;;10.48;70.22;100965.47;5096372;28;20069;-63
2021/10/10 04:52:32;;;;;;;21.05;14.68;;;;;;;10.46;70.00;100963.66;5095064;28;20607;-63
2021/10/10 04:55:16;;;;;;;20.33;15.25;;;;;;;10.46;70.13;100961.94;5095431;28;20055;-63
2021/10/10 04:58:01;;;;;;;19.15;14.55;;;;;;;10.46;70.26;100963.66;5095792;28;20081;-63
2021/10/10 05:00:45;;;;;;;21.90;15.75;;;;;;;10.44;70.40;100960.13;5094576;28;20110;-63
2021/10/10 05:03:29;;;;;;;20.77;15.30;;;;;;;10.44;69.94;100965.31;5095204;28;20101;-63
2021/10/10 05:06:13;;;;;;;22.45;14.30;;;;;;;10.43;70.54;100959.25;5095400;28;20105;-63
2021/10/10 05:08:56;;;;;;;22.10;14.15;;;;;;;10.44;69.88;100970.50;5094904;28;20047;-63
2021/10/10 05:11:40;;;;;;;18.90;14.18;;;;;;;10.42;70.30;100977.34;5094563;28;20105;-63
2021/10/10 05:14:24;;;;;;;21.23;14.82;;;;;;;10.39;70.07;100972.06;5095210;28;20051;-62
2021/10/10 05:17:08;;;;;;;20.65;15.60;;;;;;;10.36;70.23;100976.28;5095762;28;20046;-63
2021/10/10 05:19:53;;;;;;;21.10;13.73;;;;;;;10.32;69.95;100977.03;5094747;28;20533;-63
2021/10/10 05:22:37;;;;;;;20.77;16.02;;;;;;;10.31;69.91;100975.28;5094332;28;20415;-63
2021/10/10 05:25:21;;;;;;;20.70;15.13;;;;;;;10.30;69.91;100981.28;5095054;28;20131;-63
2021/10/10 05:28:04;;;;;;;22.88;15.50;;;;;;;10.28;70.06;100971.69;5095419;28;20047;-64
2021/10/10 05:30:51;;;;;;;19.00;15.32;;;;;;;10.27;70.08;100978.59;5095599;28;20109;-63
2021/10/10 05:33:35;;;;;;;20.02;13.60;;;;;;;10.28;69.87;100972.59;5094898;28;20502;-63
2021/10/10 05:36:19;;;;;;;23.77;15.18;;;;;;;10.29;69.77;100982.13;5095933;28;20043;-64
2021/10/10 05:39:03;;;;;;;21.13;13.55;;;;;;;10.26;70.07;100976.81;5094790;28;20121;-63
2021/10/10 05:41:47;;;;;;;;;;;;;;;10.25;69.74;100987.16;5094084;28;20047;-63
2021/10/10 05:44:31;;;;;;;23.55;14.02;;;;;;;10.24;69.92;100985.41;5094326;28;19970;-63
2021/10/10 05:47:15;;;;;;;20.55;14.65;;;;;;;10.26;69.81;100987.19;5094763;28;20046;-63
2021/10/10 05:49:59;;;;;;;21.25;15.30;;;;;;;10.25;69.90;100984.56;5094889;28;20453;-63
2021/10/10 05:52:43;;;;;;;19.70;14.07;;;;;;;10.24;69.74;100982.81;5094094;28;20085;-63
2021/10/10 05:55:27;;;;;;;22.55;13.73;;;;;;;10.23;70.04;100981.91;5094475;28;20545;-63
2021/10/10 05:58:20;;;;;;;18.60;13.70;;;;;;;10.25;69.89;100981.97;5093372;28;20112;-63
2021/10/10 06:01:04;;;;;;;16.35;13.15;;;;;;;10.20;69.76;100985.28;5093828;28;20116;-62
2021/10/10 06:03:48;;;;;;;24.17;13.50;;;;;;;10.20;69.76;100984.38;5093548;28;20047;-63
2021/10/10 06:06:32;;;;;;;17.60;13.55;;;;;;;10.19;69.79;100983.53;5094933;28;20046;-63
2021/10/10 06:09:16;;;;;;;20.83;13.20;;;;;;;10.18;69.57;100986.94;5094641;28;20062;-63
2021/10/10 06:12:00;;;;;;;18.08;13.82;;;;;;;10.18;69.85;100992.13;5094366;28;20082;-63
2021/10/10 06:14:47;;;;;;;19.52;11.90;;;;;;;10.19;69.92;100990.44;5093871;28;20051;-65
2021/10/10 06:17:32;;;;;;;21.42;14.55;;;;;;;10.18;69.80;100991.25;5093505;28;20047;-63
2021/10/10 06:20:16;;;;;;;18.23;12.85;;;;;;;10.16;69.53;100985.16;5094587;28;20059;-63
2021/10/10 06:23:00;;;;;;;18.42;12.40;;;;;;;10.17;69.88;100981.72;5094251;28;20093;-64
2021/10/10 06:25:44;;;;;;;15.27;11.95;;;;;;;10.17;69.66;100974.81;5094583;28;20051;-63
2021/10/10 06:28:27;;;;;;;15.30;11.00;;;;;;;10.16;69.83;100982.56;5094392;28;20395;-63
2021/10/10 06:31:11;;;;;;;19.67;12.48;;;;;;;10.15;69.68;100973.88;5093946;28;20074;-63
2021/10/10 06:33:55;;;;;;;19.85;12.05;;;;;;;10.15;69.68;100973.88;5094083;28;20078;-63
2021/10/10 06:36:39;;;;;;;22.67;12.30;;;;;;;10.19;69.79;100986.13;5093869;28;20058;-62
2021/10/10 06:39:23;;;;;;;15.52;10.82;;;;;;;10.19;69.82;100987.84;5094269;28;20140;-62
2021/10/10 06:42:07;;;;;;;22.45;12.57;;;;;;;10.18;69.86;100983.50;5093986;28;20070;-63
2021/10/10 06:44:52;;;;;;;16.88;12.23;;;;;;;10.16;69.53;100991.19;5093401;28;20043;-64
2021/10/10 06:47:36;;;;;;;;;;;;;;;10.15;69.75;100998.94;5072813;28;20127;-62
2021/10/10 06:50:20;;;;;;;15.75;10.57;;;;;;;10.13;69.55;100995.41;5072441;28;19923;-63
2021/10/10 06:53:04;;;;;;;17.33;12.48;;;;;;;10.13;69.52;101000.56;5073499;28;20093;-62
2021/10/10 06:55:51;;;;;;;15.13;10.07;;;;;;;10.12;69.62;100998.81;5073259;28;20113;-62
2021/10/10 06:58:35;;;;;;;14.40;10.23;;;;;;;10.14;69.63;100998.03;5072362;28;20047;-62
2021/10/10 07:01:19;;;;;;;17.15;11.48;;;;;;;10.13;69.83;101005.75;5072395;28;20043;-63
2021/10/10 07:04:03;;;;;;;14.63;11.60;;;;;;;10.14;69.51;101008.38;5073681;28;20048;-63
2021/10/10 07:06:47;;;;;;;16.35;10.73;;;;;;;10.10;69.78;101000.47;5073284;28;20101;-63
2021/10/10 07:09:31;;;;;;;14.68;10.70;;;;;;;10.11;69.47;100999.66;5072528;28;20090;-63
2021/10/10 07:12:18;;;;;;;14.45;10.50;;;;;;;10.11;69.57;100992.78;5073377;28;20566;-63
2021/10/10 07:15:04;;;;;;;13.15;10.70;;;;;;;10.12;69.70;100998.81;5072376;28;20450;-63
2021/10/10 07:17:59;;;;;;;17.63;11.05;;;;;;;10.14;69.86;100998.03;5072583;28;20075;-63
2021/10/10 07:21:07;;;;;;;16.95;12.30;;;;;;;10.15;69.93;100994.59;5101122;28;20549;-62
2021/10/10 07:26:55;;;;;;;16.80;10.95;;;;;;;10.20;69.89;100992.16;5073299;28;20462;-63
2021/10/10 07:29:45;;;;;;;13.70;10.52;;;;;;;10.21;69.67;100988.75;5073093;28;20106;-63
2021/10/10 07:32:35;;;;;;;16.33;11.77;;;;;;;10.25;69.81;100987.16;5071972;28;20047;-63
2021/10/10 07:35:21;;;;;;;16.40;11.07;;;;;;;10.28;69.67;100997.59;5072588;28;20048;-64
2021/10/10 07:38:05;;;;;;;19.63;12.18;;;;;;;10.30;70.16;101014.97;5071765;28;20491;-63
2021/10/10 07:40:49;;;;;;;18.50;12.75;;;;;;;10.31;69.80;101011.56;5072752;28;20098;-63
2021/10/10 07:43:34;;;;;;;21.15;13.30;;;;;;;10.31;70.16;101006.38;5073086;28;20091;-62
2021/10/10 07:46:33;;;;;;;;;;;;;;;10.32;69.88;101012.41;5073488;28;20075;-63
2021/10/10 07:49:19;;;;;;;17.70;11.48;;;;;;;10.35;70.03;101009.94;5073026;28;19923;-63
2021/10/10 07:52:04;;;;;;;18.92;12.52;;;;;;;10.38;70.13;101011.72;5073006;28;20098;-63
2021/10/10 07:54:48;;;;;;;17.92;12.20;;;;;;;10.39;70.12;101011.84;5072621;28;20552;-63
2021/10/10 07:57:32;;;;;;;18.38;13.07;;;;;;;10.42;70.33;101011.03;5072785;28;20052;-63
2021/10/10 08:00:16;;;;;;;17.95;11.95;;;;;;;10.43;70.17;101010.22;5072588;28;20048;-62
2021/10/10 08:03:03;;;;;;;;;;;;;;;10.45;70.30;100998.19;5072901;28;20101;-64
2021/10/10 08:05:50;;;;;;;19.10;12.77;;;;;;;10.46;70.02;100992.19;5072656;28;19958;-64
2021/10/10 08:08:34;;;;;;;18.70;12.52;;;;;;;10.48;70.14;100983.59;5075713;28;20055;-62
2021/10/10 08:11:17;;;;;;;19.60;13.68;;;;;;;10.51;70.42;100973.34;5075741;28;20050;-63
2021/10/10 08:14:02;;;;;;;20.08;13.15;;;;;;;10.54;70.06;100974.28;5076551;28;20541;-62
2021/10/10 08:16:45;;;;;;;18.17;12.98;;;;;;;10.57;70.32;100971.78;5076502;28;20125;-63
2021/10/10 08:19:30;;;;;;;21.15;14.65;;;;;;;10.60;70.26;100979.63;5075580;28;20051;-63
2021/10/10 08:22:14;;;;;;;;;;;;;;;10.61;70.34;100983.97;5076364;28;20083;-63
2021/10/10 08:25:06;;;;;;;19.80;12.93;;;;;;;10.64;70.75;100991.84;5076599;28;19938;-64
2021/10/10 08:27:53;;;;;;;19.77;13.02;;;;;;;10.66;70.47;100987.59;5076379;28;20087;-63
2021/10/10 08:30:40;;;;;;;16.20;12.07;;;;;;;10.69;70.66;100986.81;5076035;28;20102;-63
2021/10/10 08:33:24;;;;;;;17.73;12.43;;;;;;;10.73;70.82;100996.44;5074955;28;20530;-63
2021/10/10 08:36:08;;;;;;;21.00;13.10;;;;;;;10.74;70.64;100998.22;5074970;28;20121;-63
2021/10/10 08:38:52;;;;;;;17.10;12.25;;;;;;;10.75;70.54;101011.22;5075338;28;20134;-63
2021/10/10 08:41:36;;;;;;;17.15;12.77;;;;;;;10.78;70.34;101007.84;5075882;28;20137;-63
2021/10/10 08:44:27;;;;;;;19.98;12.73;;;;;;;10.80;70.82;100996.69;5075305;28;20090;-62
2021/10/10 08:47:16;;;;;;;16.58;11.98;;;;;;;10.84;70.51;101002.84;5075566;28;20047;-63
2021/10/10 08:50:02;;;;;;;16.45;12.32;;;;;;;10.87;70.43;101004.66;5075141;28;20565;-63
2021/10/10 08:52:52;;;;;;;15.20;11.88;;;;;;;10.89;70.38;101001.28;5075244;28;20086;-63
2021/10/10 08:55:42;;;;;;;16.77;11.60;;;;;;;10.91;70.50;101012.56;5075640;28;20518;-63
2021/10/10 08:58:30;;;;;;;15.85;11.68;;;;;;;10.94;70.94;101014.38;5074789;28;20522;-63
2021/10/10 09:01:25;;;;;;;16.50;12.57;;;;;;;10.96;70.61;101013.59;5075538;28;20517;-63
2021/10/10 09:04:09;;;;;;;16.90;11.05;;;;;;;10.98;70.50;101008.44;5075444;28;20178;-64
2021/10/10 09:06:58;;;;;;;15.73;12.45;;;;;;;11.00;70.75;100999.00;5075104;28;20048;-62
2021/10/10 09:09:43;;;;;;;18.92;12.13;;;;;;;11.02;70.39;101017.19;5074598;28;20518;-63
2021/10/10 09:12:29;;;;;;;;;;;;;;;11.04;70.72;101020.72;5075472;28;20047;-63
2021/10/10 09:15:21;;;;;;;13.63;10.93;;;;;;;11.05;70.34;101025.06;5075522;28;19919;-63
2021/10/10 09:18:06;;;;;;;20.52;11.98;;;;;;;11.07;70.52;101028.59;5075156;28;20079;-64
2021/10/10 09:20:50;;;;;;;14.57;11.45;;;;;;;11.09;70.45;101032.97;5075134;28;20059;-63
2021/10/10 09:23:36;;;;;;;18.23;12.27;;;;;;;11.09;70.64;101029.53;5074151;28;20175;-63
2021/10/10 09:26:24;;;;;;;15.88;11.80;;;;;;;11.12;70.54;101022.69;5074787;28;20044;-63
2021/10/10 09:29:31;;;;;;;19.98;11.75;;;;;;;11.13;70.54;101018.41;5074046;28;20039;-63
2021/10/10 09:32:18;;;;;;;19.65;12.43;;;;;;;11.15;70.47;101023.63;5074229;28;20094;-62
2021/10/10 09:35:04;;;;;;;19.85;12.15;;;;;;;11.17;70.27;101027.16;5074146;28;20094;-63
2021/10/10 09:38:04;;;;;;;15.15;11.02;;;;;;;11.17;70.53;101035.81;5074477;28;20043;-63
2021/10/10 09:41:05;;;;;;;15.82;10.70;;;;;;;11.18;70.29;101028.91;5074204;28;20435;-63
2021/10/10 09:44:08;;;;;;;14.77;10.70;;;;;;;11.19;70.70;101025.50;5073752;28;20052;-63
2021/10/10 09:47:01;;;;;;;13.65;10.27;;;;;;;11.20;70.67;101028.13;5074743;28;20090;-64
2021/10/10 09:49:45;;;;;;;15.63;12.05;;;;;;;11.21;70.61;101032.47;5073950;28;20396;-63
2021/10/10 09:52:28;;;;;;;15.60;10.90;;;;;;;11.25;70.58;101036.03;5074550;28;20050;-63
2021/10/10 09:55:14;;;;;;;13.65;10.40;;;;;;;11.24;70.62;101035.16;5073545;28;20047;-64
2021/10/10 09:58:02;;;;;;;16.10;11.13;;;;;;;11.27;70.83;101040.44;5073567;28;20048;-63
2021/10/10 10:00:46;;;;;;;19.02;11.52;;;;;;;11.29;70.48;101037.88;5074131;28;20039;-63
2021/10/10 10:03:31;;;;;;;14.27;10.35;;;;;;;11.30;70.68;101042.25;5074588;28;20522;-63
2021/10/10 10:06:15;;;;;;;14.45;11.40;;;;;;;11.33;70.72;101050.13;5074275;28;20071;-63
2021/10/10 10:09:11;;;;;;;15.43;10.55;;;;;;;11.35;70.84;101055.34;5074693;28;20086;-63
2021/10/10 10:11:55;;;;;;;14.48;11.43;;;;;;;11.37;70.83;101049.34;5073145;28;20475;-64
2021/10/10 10:14:39;;;;;;;;;;;;;;;11.38;70.73;101048.50;5074864;28;20565;-63
2021/10/10 10:17:29;;;;;;;15.02;11.30;;;;;;;11.40;70.77;101048.56;5072913;28;19997;-64
2021/10/10 10:20:22;;;;;;;14.13;12.15;;;;;;;11.41;70.33;101051.22;5073073;28;20055;-63
2021/10/10 10:23:09;;;;;;;15.40;11.85;;;;;;;11.43;70.63;101044.34;5074124;28;20051;-63
2021/10/10 10:25:59;;;;;;;20.35;12.02;;;;;;;11.45;70.86;101034.00;5073472;28;20457;-64
2021/10/10 10:28:49;;;;;;;18.00;12.27;;;;;;;11.48;70.50;101028.03;5096774;28;20071;-63
2021/10/10 10:31:35;;;;;;;20.80;13.65;;;;;;;11.50;70.72;101029.81;5112179;28;20487;-64
2021/10/10 10:34:31;;;;;;;20.20;13.32;;;;;;;11.52;70.94;101022.97;5113930;28;20421;-63
2021/10/10 10:37:15;;;;;;;16.42;12.88;;;;;;;11.53;70.51;101019.53;5113321;28;20405;-63
2021/10/10 10:40:26;;;;;;;17.98;11.52;;;;;;;11.55;70.73;101028.25;5112958;28;20038;-64
2021/10/10 10:43:35;;;;;;;16.88;12.82;;;;;;;11.56;70.62;101036.91;5111883;28;20185;-64
2021/10/10 10:46:19;;;;;;;18.67;13.18;;;;;;;11.56;70.72;101026.50;5113046;28;20070;-64
2021/10/10 10:49:03;;;;;;;19.00;14.70;;;;;;;11.57;70.65;101023.97;5113678;28;20051;-64
2021/10/10 10:52:24;;;;;;;17.15;12.40;;;;;;;11.57;70.57;101021.38;5114069;28;20043;-65
2021/10/10 10:55:14;;;;;;;20.80;14.13;;;;;;;11.58;70.88;101010.16;5113643;28;20054;-62
2021/10/10 10:58:12;;;;;;;18.42;13.75;;;;;;;11.61;71.04;101017.16;5112628;28;20074;-63
2021/10/10 11:01:08;;;;;;;18.17;13.55;;;;;;;11.62;70.92;101012.81;5113362;28;20046;-64
2021/10/10 11:04:41;;;;;;;19.30;13.48;;;;;;;11.63;70.98;101014.56;5112863;28;20089;-63
2021/10/10 11:07:32;;;;;;;23.10;14.38;;;;;;;11.63;70.79;101015.47;5107268;28;20090;-64
2021/10/10 11:10:16;;;;;;;17.83;13.48;;;;;;;11.64;70.75;101012.03;5112799;28;20069;-63
2021/10/10 11:13:21;;;;;;;;;;;;;;;11.63;70.77;100997.28;5113960;28;20046;-64
2021/10/10 11:16:29;;;;;;;19.42;14.18;;;;;;;11.64;70.78;100990.38;5112454;28;19977;-63
2021/10/10 11:19:18;;;;;;;17.38;14.00;;;;;;;11.66;70.83;100988.69;5113313;28;20045;-63
2021/10/10 11:22:02;;;;;;;17.77;12.60;;;;;;;11.68;70.97;100980.09;5112111;28;20132;-63
2021/10/10 11:24:51;;;;;;;15.45;12.40;;;;;;;11.69;70.66;100984.47;5112497;28;20092;-63
2021/10/10 11:27:39;;;;;;;18.58;12.88;;;;;;;11.71;70.52;100979.31;5113037;28;20054;-63
2021/10/10 11:30:35;;;;;;;18.42;13.20;;;;;;;11.73;70.68;100978.50;5112706;28;20466;-63
2021/10/10 11:33:34;;;;;;;20.48;14.25;;;;;;;11.73;71.08;100988.91;5113525;28;20054;-63
2021/10/10 11:36:52;;;;;;;16.58;12.70;;;;;;;11.76;70.87;100992.41;5111894;28;20082;-63
2021/10/10 11:39:42;;;;;;;21.05;13.63;;;;;;;11.81;70.84;100994.28;5111721;28;20050;-65
2021/10/10 11:42:39;;;;;;;26.55;13.13;;;;;;;11.86;70.53;101004.81;5114111;28;20046;-63
2021/10/10 11:45:23;;;;;;;17.23;12.43;;;;;;;11.87;70.80;101007.47;5117146;28;20561;-62
2021/10/10 11:48:10;;;;;;;;;;;;;;;11.91;70.54;101016.19;5116908;28;20131;-64
2021/10/10 11:50:54;;;;;;;16.95;12.35;;;;;;;11.92;70.68;101017.97;5117689;28;19919;-64
2021/10/10 11:53:45;;;;;;;20.50;12.88;;;;;;;11.94;70.54;101000.69;5117458;28;20566;-63
2021/10/10 11:56:32;;;;;;;17.77;11.93;;;;;;;11.95;70.30;100971.28;5117522;28;20054;-63
2021/10/10 11:59:19;;;;;;;19.05;12.75;;;;;;;11.98;70.46;100973.06;5117538;28;20050;-63
2021/10/10 12:02:05;;;;;;;18.20;12.30;;;;;;;11.99;70.85;100987.84;5115939;28;20050;-63
2021/10/10 12:05:02;;;;;;;21.02;14.55;;;;;;;12.01;70.53;100991.38;5116250;28;20077;-63
2021/10/10 12:07:47;;;;;;;15.77;12.32;;;;;;;11.99;70.62;100980.91;5117067;28;20072;-63
2021/10/10 12:10:38;;;;;;;22.10;13.52;;;;;;;12.00;70.44;100982.69;5116110;28;20082;-64
2021/10/10 12:13:22;;;;;;;21.17;13.80;;;;;;;12.03;70.28;100982.75;5117093;28;20127;-63
2021/10/10 12:16:06;;;;;;;18.98;12.75;;;;;;;12.05;70.52;100974.13;5115882;28;20051;-63
2021/10/10 12:18:56;;;;;;;20.00;12.18;;;;;;;12.06;70.35;100978.50;5117061;28;20095;-64
2021/10/10 12:21:45;;;;;;;18.42;12.90;;;;;;;12.05;70.55;100982.81;5115901;28;20062;-63
2021/10/10 12:24:29;;;;;;;20.30;13.07;;;;;;;12.05;70.47;100975.03;5117380;28;20038;-64
2021/10/10 12:27:31;;;;;;;19.35;13.75;;;;;;;12.06;70.54;100971.59;5117351;28;20108;-64
2021/10/10 12:30:29;;;;;;;18.05;13.50;;;;;;;12.06;70.34;100969.00;5117133;28;20054;-63
2021/10/10 12:33:25;;;;;;;20.70;13.57;;;;;;;12.10;70.60;100959.53;5116169;28;20399;-64
2021/10/10 12:36:16;;;;;;;21.95;15.18;;;;;;;12.13;70.61;100957.03;5115850;28;20065;-64
2021/10/10 12:39:00;;;;;;;20.50;13.18;;;;;;;12.15;70.71;100951.00;5115523;28;20119;-64
2021/10/10 12:41:44;;;;;;;26.30;15.20;;;;;;;12.17;70.52;100949.34;5116173;28;20078;-63
2021/10/10 12:44:42;;;;;;;19.10;13.75;;;;;;;12.21;70.58;100946.81;5115491;28;20061;-63
2021/10/10 12:47:36;;;;;;;19.48;13.93;;;;;;;12.19;70.20;100954.56;5116273;28;20069;-63
2021/10/10 12:50:23;;;;;;;22.42;15.00;;;;;;;12.20;70.34;100958.91;5116386;28;20165;-63
2021/10/10 12:53:22;;;;;;;20.70;14.35;;;;;;;12.21;70.17;100959.81;5115182;28;20049;-63
2021/10/10 12:56:17;;;;;;;21.75;15.65;;;;;;;12.21;70.38;100952.00;5116337;28;20184;-64
2021/10/10 12:59:07;;;;;;;24.25;15.10;;;;;;;12.25;70.17;100961.63;5115383;28;20090;-63
2021/10/10 13:01:51;;;;;;;24.60;16.77;;;;;;;12.29;70.31;100956.56;5115053;28;20042;-63
2021/10/10 13:04:36;;;;;;;24.20;15.30;;;;;;;12.31;70.43;100948.78;5115920;28;20112;-64
2021/10/10 13:07:21;;;;;;;23.80;16.02;;;;;;;12.30;70.30;100944.41;5115754;28;20050;-63
2021/10/10 13:10:06;;;;;;;24.00;14.52;;;;;;;12.32;70.34;100947.94;5115538;28;20042;-63
2021/10/10 13:12:50;;;;;;;21.10;16.05;;;;;;;12.33;70.43;100945.38;5116255;28;20055;-63